Time;durP1;ratioP1;P1;durP2;ratioP2;P2;SDS_P1;SDS_P2;PMS_P1;PMS_P2;Temp;Humidity;BMP_temperature;BMP_pressure;BME280_temperature;BME280_humidity;BME280_pressure;Samples;Min_cycle;Max_cycle;Signal;HPM_P1;HPM_P2
2021/10/14 00:01:01;;;;;;;9.87;6.20;;;11.20;99.90;;;;;;5010757;28;20205;-50
2021/10/14 00:03:28;;;;;;;10.93;6.50;;;11.10;99.90;;;;;;5009919;28;20270;-49
2021/10/14 00:05:55;;;;;;;10.53;6.30;;;11.10;99.90;;;;;;5009361;28;20290;-50
2021/10/14 00:08:22;;;;;;;13.47;7.70;;;11.10;99.90;;;;;;5010450;28;20426;-50
2021/10/14 00:10:48;;;;;;;11.33;7.30;;;11.10;99.90;;;;;;5008315;28;20292;-50
2021/10/14 00:13:15;;;;;;;13.47;7.50;;;11.00;99.90;;;;;;5011192;28;20637;-49
2021/10/14 00:15:42;;;;;;;16.13;7.87;;;11.00;99.90;;;;;;5010560;28;20298;-50
2021/10/14 00:18:09;;;;;;;14.33;7.93;;;11.00;99.90;;;;;;5011927;28;20642;-50
2021/10/14 00:20:36;;;;;;;11.40;7.57;;;11.00;99.90;;;;;;5010259;28;20207;-51
2021/10/14 00:23:03;;;;;;;12.27;8.40;;;11.00;99.90;;;;;;5007257;28;20244;-50
2021/10/14 00:25:31;;;;;;;11.20;7.80;;;11.00;99.90;;;;;;5008317;28;20208;-51
2021/10/14 00:27:58;;;;;;;14.20;9.33;;;11.00;99.90;;;;;;5011933;28;20291;-50
2021/10/14 00:30:25;;;;;;;19.13;8.80;;;11.00;99.90;;;;;;5010773;28;20216;-50
2021/10/14 00:32:51;;;;;;;13.50;8.93;;;11.00;99.90;;;;;;5009938;28;20265;-51
2021/10/14 00:35:18;;;;;;;12.50;8.97;;;11.00;99.90;;;;;;5011933;28;20309;-50
2021/10/14 00:37:45;;;;;;;15.50;9.27;;;11.00;99.90;;;;;;5010212;28;20238;-50
2021/10/14 00:40:15;;;;;;;16.30;9.83;;;11.00;99.90;;;;;;5011036;28;20299;-51
2021/10/14 00:42:46;;;;;;;18.47;10.20;;;11.00;99.90;;;;;;5010093;28;20525;-50
2021/10/14 00:45:13;;;;;;;16.63;9.83;;;11.00;99.90;;;;;;5006996;28;20227;-50
2021/10/14 00:47:40;;;;;;;16.33;10.33;;;11.00;99.90;;;;;;5007144;28;20604;-49
2021/10/14 00:50:09;;;;;;;16.63;10.07;;;11.00;99.90;;;;;;5010320;28;20242;-50
2021/10/14 00:52:39;;;;;;;16.30;10.27;;;11.10;99.90;;;;;;5010383;28;20318;-50
2021/10/14 00:55:07;;;;;;;16.63;10.27;;;11.10;99.90;;;;;;5008010;28;20597;-50
2021/10/14 00:57:34;;;;;;;18.63;10.93;;;11.20;99.90;;;;;;5008236;28;20626;-50
2021/10/14 01:00:03;;;;;;;20.50;11.27;;;11.20;99.90;;;;;;5010030;28;20204;-50
2021/10/14 01:02:30;;;;;;;18.53;11.57;;;11.20;99.90;;;;;;5009977;28;20260;-50
2021/10/14 01:04:57;;;;;;;19.80;11.50;;;11.10;99.90;;;;;;5010241;28;20204;-50
2021/10/14 01:07:24;;;;;;;18.93;11.07;;;11.20;99.90;;;;;;5011363;28;20293;-50
2021/10/14 01:09:51;;;;;;;17.97;12.00;;;11.20;99.90;;;;;;5006864;28;20290;-50
2021/10/14 01:12:19;;;;;;;16.10;12.07;;;11.20;99.90;;;;;;5009784;28;20198;-50
2021/10/14 01:14:46;;;;;;;20.27;12.57;;;11.20;99.90;;;;;;5009332;28;20566;-49
2021/10/14 01:17:13;;;;;;;18.70;12.07;;;11.20;99.90;;;;;;5010797;28;21740;-50
2021/10/14 01:19:40;;;;;;;20.20;12.90;;;11.20;99.90;;;;;;5009908;28;20203;-49
2021/10/14 01:22:08;;;;;;;19.07;12.57;;;11.20;99.90;;;;;;5008102;28;20221;-49
2021/10/14 01:24:35;;;;;;;18.20;13.13;;;11.20;99.90;;;;;;5007362;28;20244;-49
2021/10/14 01:27:08;;;;;;;20.30;12.97;;;11.20;99.90;;;;;;5007937;28;20262;-49
2021/10/14 01:29:35;;;;;;;17.80;12.87;;;11.20;99.90;;;;;;5010602;28;20247;-50
2021/10/14 01:32:03;;;;;;;22.47;12.93;;;11.20;99.90;;;;;;5010861;28;20283;-50
2021/10/14 01:34:31;;;;;;;22.43;13.53;;;11.20;99.90;;;;;;5010087;28;20247;-49
2021/10/14 01:36:58;;;;;;;20.57;13.27;;;11.20;99.90;;;;;;5009671;28;20254;-50
2021/10/14 01:39:25;;;;;;;19.10;13.27;;;11.20;99.90;;;;;;5008097;28;20239;-49
2021/10/14 01:41:52;;;;;;;22.07;13.97;;;11.30;99.90;;;;;;5005703;28;20243;-50
2021/10/14 01:44:19;;;;;;;20.07;13.83;;;11.20;99.90;;;;;;5008318;28;20313;-49
2021/10/14 01:46:46;;;;;;;23.67;14.13;;;11.20;99.90;;;;;;5007205;28;20606;-51
2021/10/14 01:49:13;;;;;;;19.50;13.67;;;11.20;99.90;;;;;;5009064;28;20204;-50
2021/10/14 01:51:40;;;;;;;19.97;13.40;;;11.20;99.90;;;;;;5007679;28;20238;-50
2021/10/14 01:54:07;;;;;;;19.63;13.17;;;11.20;99.90;;;;;;5009225;28;20323;-50
2021/10/14 01:56:34;;;;;;;20.63;12.83;;;11.20;99.90;;;;;;5007128;28;20236;-50
2021/10/14 01:59:01;;;;;;;18.43;12.77;;;11.20;99.90;;;;;;5007481;28;20291;-50
2021/10/14 02:01:27;;;;;;;19.70;12.73;;;11.20;99.90;;;;;;5007823;28;20199;-50
2021/10/14 02:03:55;;;;;;;16.70;12.20;;;11.20;99.90;;;;;;5009798;28;20211;-51
2021/10/14 02:06:39;;;;;;;17.20;12.77;;;11.20;99.90;;;;;;5005662;28;20559;-50
2021/10/14 02:09:06;;;;;;;17.37;12.50;;;11.20;99.90;;;;;;5010535;28;20669;-50
2021/10/14 02:11:33;;;;;;;20.67;12.63;;;11.20;99.90;;;;;;5004562;28;20504;-50
2021/10/14 02:13:59;;;;;;;18.17;12.67;;;11.30;99.90;;;;;;5007439;28;20718;-50
2021/10/14 02:16:26;;;;;;;22.33;12.47;;;11.30;99.90;;;;;;5008428;28;20205;-50
2021/10/14 02:18:53;;;;;;;18.67;12.57;;;11.20;99.90;;;;;;5009987;28;20220;-48
2021/10/14 02:21:20;;;;;;;18.67;12.67;;;11.20;99.90;;;;;;5007869;28;20232;-50
2021/10/14 02:23:47;;;;;;;21.03;12.50;;;11.20;99.90;;;;;;5007541;28;20675;-49
2021/10/14 02:26:14;;;;;;;21.60;13.07;;;11.10;99.90;;;;;;5007508;28;20727;-50
2021/10/14 02:28:41;;;;;;;20.77;12.90;;;11.10;99.90;;;;;;5007806;28;20202;-49
2021/10/14 02:31:08;;;;;;;16.63;11.10;;;11.20;99.90;;;;;;5006695;28;20253;-50
2021/10/14 02:33:35;;;;;;;23.80;12.80;;;11.20;99.90;;;;;;5005467;28;20249;-48
2021/10/14 02:36:02;;;;;;;18.20;12.70;;;11.30;99.90;;;;;;5009329;28;20295;-48
2021/10/14 02:38:28;;;;;;;15.60;11.70;;;11.20;99.90;;;;;;5009498;28;20219;-51
2021/10/14 02:40:55;;;;;;;20.83;12.40;;;11.30;99.90;;;;;;5006126;28;20229;-50
2021/10/14 02:43:22;;;;;;;21.80;12.77;;;11.20;99.90;;;;;;5008218;28;20301;-50
2021/10/14 02:45:49;;;;;;;16.83;11.70;;;11.30;99.90;;;;;;5008371;28;20618;-50
2021/10/14 02:48:16;;;;;;;20.73;12.30;;;11.30;99.90;;;;;;5008620;28;20202;-50
2021/10/14 02:50:43;;;;;;;16.67;12.40;;;11.20;99.90;;;;;;5007555;28;20269;-50
2021/10/14 02:53:10;;;;;;;16.17;11.30;;;11.30;99.90;;;;;;5006824;28;20260;-50
2021/10/14 02:55:37;;;;;;;19.87;12.37;;;11.30;99.90;;;;;;5006457;28;20197;-50
2021/10/14 02:58:04;;;;;;;19.03;11.60;;;11.30;99.90;;;;;;5007293;28;20585;-50
2021/10/14 03:00:31;;;;;;;20.37;12.67;;;11.30;99.90;;;;;;5009108;28;20281;-50
2021/10/14 03:02:58;;;;;;;15.93;11.10;;;11.40;99.90;;;;;;5007209;28;20198;-49
2021/10/14 03:05:25;;;;;;;17.73;11.33;;;11.40;99.90;;;;;;5007671;28;20280;-49
2021/10/14 03:07:52;;;;;;;21.40;12.20;;;11.40;99.90;;;;;;5005984;28;20206;-48
2021/10/14 03:10:19;;;;;;;17.27;11.83;;;11.50;99.90;;;;;;5005214;28;20333;-49
2021/10/14 03:12:46;;;;;;;19.83;11.47;;;11.50;99.90;;;;;;5005706;28;20598;-50
2021/10/14 03:15:13;;;;;;;17.77;11.40;;;11.50;99.90;;;;;;5006930;28;20857;-51
2021/10/14 03:17:39;;;;;;;16.93;10.87;;;11.40;99.90;;;;;;5008384;28;20269;-48
2021/10/14 03:20:07;;;;;;;20.87;12.17;;;11.50;99.90;;;;;;5008749;28;20540;-48
2021/10/14 03:22:33;;;;;;;15.03;10.70;;;11.60;99.90;;;;;;5008231;28;20203;-48
2021/10/14 03:25:00;;;;;;;20.20;11.53;;;11.50;99.90;;;;;;5004229;28;20246;-47
2021/10/14 03:27:27;;;;;;;20.00;11.77;;;11.50;99.90;;;;;;5008308;28;20204;-48
2021/10/14 03:29:54;;;;;;;20.80;10.97;;;11.50;99.90;;;;;;5007989;28;20593;-49
2021/10/14 03:32:21;;;;;;;20.30;11.50;;;11.60;99.90;;;;;;5010515;28;20630;-51
2021/10/14 03:34:49;;;;;;;19.00;11.60;;;11.50;99.90;;;;;;5012612;28;20206;-48
2021/10/14 03:37:17;;;;;;;16.83;10.87;;;11.50;99.90;;;;;;5012391;28;21366;-52
2021/10/14 03:39:44;;;;;;;17.53;11.97;;;11.50;99.90;;;;;;5011613;28;20243;-50
2021/10/14 03:42:10;;;;;;;19.20;10.57;;;11.50;99.90;;;;;;5010296;28;20281;-50
2021/10/14 03:44:37;;;;;;;19.37;11.20;;;11.60;99.90;;;;;;5012503;28;20301;-50
2021/10/14 03:47:04;;;;;;;16.93;11.23;;;11.60;99.90;;;;;;5011086;28;20269;-50
2021/10/14 03:49:31;;;;;;;18.13;12.17;;;11.50;99.90;;;;;;5013041;28;20771;-50
2021/10/14 03:51:58;;;;;;;16.53;10.87;;;11.50;99.90;;;;;;5009162;28;20580;-50
2021/10/14 03:54:25;;;;;;;17.20;10.90;;;11.60;99.90;;;;;;5011334;28;20662;-50
2021/10/14 03:56:52;;;;;;;18.00;11.77;;;11.50;99.90;;;;;;5009360;28;20235;-49
2021/10/14 03:59:18;;;;;;;18.77;12.17;;;11.70;99.90;;;;;;5012285;28;20223;-51
2021/10/14 04:01:45;;;;;;;17.63;12.37;;;11.70;99.90;;;;;;5011058;28;20201;-48
2021/10/14 04:04:12;;;;;;;16.30;10.67;;;11.70;99.90;;;;;;5011865;28;20288;-51
2021/10/14 04:06:39;;;;;;;20.33;11.17;;;11.70;99.90;;;;;;5009378;28;20286;-50
2021/10/14 04:09:06;;;;;;;18.27;11.13;;;11.60;99.90;;;;;;5012224;28;20212;-48
2021/10/14 04:11:34;;;;;;;20.63;11.87;;;11.70;99.90;;;;;;5007627;28;20285;-47
2021/10/14 04:14:01;;;;;;;16.30;10.03;;;11.70;99.90;;;;;;5011776;28;20264;-48
2021/10/14 04:16:27;;;;;;;20.20;11.87;;;11.70;99.90;;;;;;5009951;28;20205;-50
2021/10/14 04:18:54;;;;;;;17.27;11.40;;;11.70;99.90;;;;;;5011291;28;20208;-48
2021/10/14 04:21:21;;;;;;;18.40;11.63;;;11.70;99.90;;;;;;5008846;28;20284;-51
2021/10/14 04:23:48;;;;;;;20.93;11.73;;;11.60;99.90;;;;;;5010101;28;20211;-49
2021/10/14 04:26:15;;;;;;;19.30;12.17;;;11.60;99.90;;;;;;5010210;28;20294;-51
2021/10/14 04:28:41;;;;;;;24.17;12.00;;;11.60;99.90;;;;;;5010320;28;20198;-48
2021/10/14 04:31:09;;;;;;;20.40;11.97;;;11.60;99.90;;;;;;5010824;28;20377;-49
2021/10/14 04:33:36;;;;;;;18.13;11.17;;;11.60;99.90;;;;;;5011499;28;20694;-50
2021/10/14 04:36:04;;;;;;;16.70;12.20;;;11.50;99.90;;;;;;5008244;28;22126;-50
2021/10/14 04:38:31;;;;;;;18.20;12.43;;;11.50;99.90;;;;;;5008729;28;20229;-50
2021/10/14 04:40:59;;;;;;;21.40;12.77;;;11.50;99.90;;;;;;5009013;28;20220;-49
2021/10/14 04:43:25;;;;;;;17.00;11.57;;;11.50;99.90;;;;;;5011192;28;20220;-49
2021/10/14 04:45:53;;;;;;;26.13;13.03;;;11.50;99.90;;;;;;5010271;28;20264;-49
2021/10/14 04:48:20;;;;;;;20.33;12.27;;;11.60;99.90;;;;;;5011903;28;20197;-50
2021/10/14 04:50:47;;;;;;;19.20;12.20;;;11.50;99.90;;;;;;5009449;28;20259;-50
2021/10/14 04:53:14;;;;;;;22.97;12.37;;;11.50;99.90;;;;;;5010856;28;20240;-51
2021/10/14 04:55:41;;;;;;;19.00;13.17;;;11.50;99.90;;;;;;5009749;28;20800;-48
2021/10/14 04:58:08;;;;;;;17.83;13.13;;;11.50;99.90;;;;;;5010584;28;20211;-50
2021/10/14 05:00:35;;;;;;;24.10;13.63;;;11.60;99.90;;;;;;5009754;28;20194;-50
2021/10/14 05:03:02;;;;;;;20.27;13.20;;;11.60;99.90;;;;;;5011107;28;20260;-50
2021/10/14 05:05:29;;;;;;;22.57;13.63;;;11.60;99.90;;;;;;5011469;28;20213;-51
2021/10/14 05:07:56;;;;;;;19.10;13.20;;;11.60;99.90;;;;;;5010634;28;20277;-50
2021/10/14 05:10:23;;;;;;;21.17;13.50;;;11.60;99.90;;;;;;5008643;28;20256;-51
2021/10/14 05:12:50;;;;;;;23.30;14.03;;;11.60;99.90;;;;;;5008915;28;20207;-48
2021/10/14 05:15:17;;;;;;;30.57;15.77;;;11.60;99.90;;;;;;5011152;28;20220;-49
2021/10/14 05:17:43;;;;;;;21.97;13.23;;;11.60;99.90;;;;;;5004693;28;20281;-48
2021/10/14 05:20:11;;;;;;;22.50;14.60;;;11.50;99.90;;;;;;5011081;28;20299;-48
2021/10/14 05:22:37;;;;;;;23.73;15.30;;;11.50;99.90;;;;;;5008322;28;20298;-50
2021/10/14 05:25:05;;;;;;;22.77;14.00;;;11.50;99.90;;;;;;5006641;28;20214;-50
2021/10/14 05:27:33;;;;;;;20.93;14.20;;;11.50;99.90;;;;;;5009537;28;20301;-50
2021/10/14 05:30:01;;;;;;;25.60;14.20;;;11.60;99.90;;;;;;5009437;28;20206;-49
2021/10/14 05:32:28;;;;;;;25.53;14.80;;;11.60;99.90;;;;;;5011137;28;20246;-50
2021/10/14 05:34:55;;;;;;;24.07;14.23;;;11.70;99.90;;;;;;5010277;28;20205;-50
2021/10/14 05:37:22;;;;;;;23.17;15.00;;;11.70;99.90;;;;;;5009388;28;20225;-50
2021/10/14 05:39:48;;;;;;;19.13;14.00;;;11.70;99.90;;;;;;5009310;28;20286;-50
2021/10/14 05:42:15;;;;;;;22.63;13.70;;;11.70;99.90;;;;;;5007580;28;20300;-48
2021/10/14 05:44:42;;;;;;;27.97;14.87;;;11.70;99.90;;;;;;5009451;28;20210;-49
2021/10/14 05:47:09;;;;;;;27.27;15.67;;;11.60;99.90;;;;;;5010129;28;20233;-50
2021/10/14 05:49:36;;;;;;;23.97;15.13;;;11.60;99.90;;;;;;5010019;28;20243;-51
2021/10/14 05:52:03;;;;;;;26.13;14.67;;;11.60;99.90;;;;;;4999032;28;20257;-51
2021/10/14 05:54:29;;;;;;;26.37;15.03;;;11.70;99.90;;;;;;5006533;28;20515;-50
2021/10/14 05:56:58;;;;;;;23.00;14.60;;;11.60;99.90;;;;;;5005112;28;20200;-50
2021/10/14 05:59:26;;;;;;;24.10;14.83;;;11.60;99.90;;;;;;5007960;28;20235;-51
2021/10/14 06:01:52;;;;;;;25.60;15.10;;;11.70;99.90;;;;;;5003787;28;20236;-50
2021/10/14 06:04:20;;;;;;;21.47;14.70;;;11.60;99.90;;;;;;5008287;28;20235;-50
2021/10/14 06:06:46;;;;;;;23.77;15.57;;;11.60;99.90;;;;;;5006365;28;20200;-50
2021/10/14 06:09:13;;;;;;;24.17;17.10;;;11.60;99.90;;;;;;5009549;28;20616;-50
2021/10/14 06:11:40;;;;;;;26.20;15.57;;;11.70;99.90;;;;;;5006015;28;20291;-49
2021/10/14 06:14:07;;;;;;;24.73;15.23;;;11.70;99.90;;;;;;5007705;28;21738;-51
2021/10/14 06:16:34;;;;;;;23.27;15.20;;;11.70;99.90;;;;;;5009403;28;20613;-49
2021/10/14 06:19:01;;;;;;;23.83;14.60;;;11.70;99.90;;;;;;5009214;28;20217;-49
2021/10/14 06:21:28;;;;;;;23.47;14.87;;;11.60;99.90;;;;;;5003875;28;20259;-49
2021/10/14 06:23:55;;;;;;;22.97;15.70;;;11.70;99.90;;;;;;5008177;28;20262;-49
2021/10/14 06:26:21;;;;;;;25.13;15.37;;;11.70;99.90;;;;;;5006400;28;20283;-51
2021/10/14 06:28:48;;;;;;;22.60;13.80;;;11.70;99.90;;;;;;5007008;28;20243;-51
2021/10/14 06:31:15;;;;;;;22.23;14.50;;;11.70;99.90;;;;;;5007210;28;20205;-49
2021/10/14 06:33:42;;;;;;;23.37;14.50;;;11.70;99.90;;;;;;5004691;28;20209;-50
2021/10/14 06:36:09;;;;;;;22.50;15.80;;;11.70;99.90;;;;;;5010052;28;20298;-50
2021/10/14 06:38:36;;;;;;;22.10;14.10;;;11.80;99.90;;;;;;5006516;28;20615;-50
2021/10/14 06:41:03;;;;;;;26.77;14.97;;;11.80;99.90;;;;;;5003481;28;20295;-49
2021/10/14 06:43:30;;;;;;;23.97;14.57;;;11.80;99.90;;;;;;4997611;28;20657;-50
2021/10/14 06:45:56;;;;;;;23.23;15.93;;;11.80;99.90;;;;;;5005018;28;20303;-50
2021/10/14 06:48:23;;;;;;;20.47;13.80;;;11.80;99.90;;;;;;5003463;28;20408;-52
2021/10/14 06:50:51;;;;;;;20.07;14.60;;;11.80;99.90;;;;;;4999809;28;20264;-51
2021/10/14 06:53:18;;;;;;;23.07;14.90;;;11.90;99.90;;;;;;5008461;28;20193;-51
2021/10/14 06:55:44;;;;;;;25.17;14.43;;;11.80;99.90;;;;;;5001927;28;20204;-49
2021/10/14 06:58:11;;;;;;;23.80;15.17;;;11.90;99.90;;;;;;5001685;28;20205;-49
2021/10/14 07:00:38;;;;;;;27.70;14.10;;;11.90;99.90;;;;;;5000622;28;20200;-49
2021/10/14 07:03:06;;;;;;;23.20;15.10;;;11.90;99.90;;;;;;5003451;28;20669;-49
2021/10/14 07:05:34;;;;;;;25.77;15.03;;;11.90;99.90;;;;;;4996471;28;20714;-49
2021/10/14 07:08:00;;;;;;;25.40;13.73;;;12.00;99.90;;;;;;5002727;28;20203;-50
2021/10/14 07:10:27;;;;;;;23.33;15.43;;;11.90;99.90;;;;;;4999245;28;20224;-50
2021/10/14 07:12:54;;;;;;;27.37;14.90;;;12.00;99.90;;;;;;5002464;28;20204;-50
2021/10/14 07:15:21;;;;;;;23.03;14.50;;;12.00;99.90;;;;;;5003894;28;20228;-50
2021/10/14 07:17:48;;;;;;;23.40;15.00;;;12.00;99.90;;;;;;5003552;28;20578;-50
2021/10/14 07:20:15;;;;;;;25.30;15.40;;;12.10;99.90;;;;;;5003338;28;20203;-49
2021/10/14 07:22:42;;;;;;;23.77;14.80;;;12.20;99.90;;;;;;4992403;28;20227;-50
2021/10/14 07:25:09;;;;;;;24.80;15.93;;;12.10;99.90;;;;;;4996010;28;20216;-50
2021/10/14 07:27:36;;;;;;;30.57;15.43;;;12.10;99.90;;;;;;5000014;28;20686;-50
2021/10/14 07:30:06;;;;;;;25.00;16.43;;;12.10;99.90;;;;;;5003229;28;20200;-50
2021/10/14 07:32:33;;;;;;;22.33;15.67;;;12.20;99.90;;;;;;5001865;28;20307;-50
2021/10/14 07:35:01;;;;;;;28.07;15.90;;;12.20;99.90;;;;;;4999022;28;20661;-50
2021/10/14 07:37:28;;;;;;;25.93;15.83;;;12.20;99.90;;;;;;4998416;28;20253;-50
2021/10/14 07:39:54;;;;;;;22.23;14.87;;;12.20;99.90;;;;;;5002531;28;20275;-49
2021/10/14 07:42:21;;;;;;;25.90;15.50;;;12.20;99.90;;;;;;4999452;28;20644;-50
2021/10/14 07:44:48;;;;;;;25.30;15.80;;;12.30;99.90;;;;;;4996845;28;20312;-49
2021/10/14 07:47:15;;;;;;;25.27;16.57;;;12.30;99.90;;;;;;4997987;28;20209;-50
2021/10/14 07:49:43;;;;;;;23.53;15.60;;;12.40;99.90;;;;;;4996649;28;20701;-50
2021/10/14 07:52:09;;;;;;;24.77;16.07;;;12.40;99.90;;;;;;4999371;28;20219;-50
2021/10/14 07:54:36;;;;;;;25.70;15.53;;;12.40;99.90;;;;;;5000309;28;20294;-50
2021/10/14 07:57:03;;;;;;;23.93;14.87;;;12.40;99.90;;;;;;4999296;28;20626;-50
2021/10/14 07:59:30;;;;;;;23.27;15.07;;;12.40;99.90;;;;;;4997898;28;20237;-50
2021/10/14 08:01:57;;;;;;;26.20;16.53;;;12.40;99.90;;;;;;4998339;28;20212;-50
2021/10/14 08:04:24;;;;;;;26.77;16.50;;;12.40;99.90;;;;;;4998644;28;20272;-49
2021/10/14 08:06:51;;;;;;;28.37;16.90;;;12.50;99.90;;;;;;4998481;28;20200;-49
2021/10/14 08:09:18;;;;;;;27.00;16.80;;;12.60;99.90;;;;;;5001850;28;20288;-50
2021/10/14 08:11:45;;;;;;;29.53;16.90;;;12.60;99.90;;;;;;4999023;28;20837;-50
2021/10/14 08:14:12;;;;;;;23.57;15.90;;;12.60;99.90;;;;;;5000739;28;20300;-50
2021/10/14 08:16:39;;;;;;;26.53;16.57;;;12.60;99.90;;;;;;4996408;28;20571;-50
2021/10/14 08:19:06;;;;;;;25.87;17.53;;;12.60;99.90;;;;;;4995442;28;20193;-49
2021/10/14 08:21:33;;;;;;;26.70;16.30;;;12.70;99.90;;;;;;5004273;28;20286;-49
2021/10/14 08:24:00;;;;;;;29.27;16.93;;;12.70;99.90;;;;;;5005539;28;20199;-49
2021/10/14 08:26:27;;;;;;;24.83;16.10;;;12.70;99.90;;;;;;5003139;28;20863;-49
2021/10/14 08:28:54;;;;;;;26.30;17.80;;;12.80;99.90;;;;;;5002370;28;20298;-49
2021/10/14 08:31:23;;;;;;;26.70;16.50;;;12.90;99.90;;;;;;5001564;28;20269;-49
2021/10/14 08:33:51;;;;;;;23.07;16.23;;;12.80;99.90;;;;;;5002438;28;20214;-50
2021/10/14 08:36:19;;;;;;;29.57;17.20;;;12.80;99.90;;;;;;4998942;28;20318;-48
2021/10/14 08:38:47;;;;;;;26.33;17.23;;;12.70;99.90;;;;;;5004098;28;20817;-49
2021/10/14 08:41:19;;;;;;;24.03;16.70;;;12.70;99.90;;;;;;5002509;28;20209;-49
2021/10/14 08:43:48;;;;;;;27.30;17.37;;;12.80;99.90;;;;;;5001702;28;20634;-49
2021/10/14 08:46:15;;;;;;;29.03;18.03;;;12.70;99.90;;;;;;5001721;28;20219;-49
2021/10/14 08:48:42;;;;;;;30.33;17.40;;;12.80;99.90;;;;;;5006589;28;20196;-52
2021/10/14 08:51:09;;;;;;;29.20;18.17;;;12.80;99.90;;;;;;5002729;28;20288;-49
2021/10/14 08:53:37;;;;;;;32.03;18.10;;;12.80;99.90;;;;;;5005255;28;20207;-50
2021/10/14 08:56:05;;;;;;;27.13;17.80;;;12.80;99.90;;;;;;5002738;28;20315;-50
2021/10/14 08:58:32;;;;;;;28.33;17.90;;;12.90;99.90;;;;;;5003932;28;20247;-50
2021/10/14 09:01:10;;;;;;;26.63;17.77;;;12.90;99.90;;;;;;5001119;28;20401;-50
2021/10/14 09:03:46;;;;;;;24.67;16.87;;;12.90;99.90;;;;;;5004082;28;20204;-49
2021/10/14 09:06:14;;;;;;;26.37;17.23;;;12.90;99.90;;;;;;5016747;28;20231;-50
2021/10/14 09:08:45;;;;;;;29.03;18.23;;;12.90;99.90;;;;;;5005518;28;20196;-50
2021/10/14 09:11:13;;;;;;;24.90;17.23;;;12.90;99.90;;;;;;5005766;28;20274;-50
2021/10/14 09:13:46;;;;;;;28.27;17.47;;;13.00;99.90;;;;;;5001689;28;20250;-49
2021/10/14 09:16:30;;;;;;;31.53;17.20;;;13.00;99.90;;;;;;5004005;28;20364;-49
2021/10/14 09:19:16;;;;;;;23.97;16.97;;;13.10;99.90;;;;;;5005059;28;20249;-50
2021/10/14 09:21:47;;;;;;;24.00;17.10;;;13.20;99.90;;;;;;5002144;28;20290;-50
2021/10/14 09:24:25;;;;;;;33.73;17.87;;;13.20;99.90;;;;;;5005802;28;20223;-50
2021/10/14 09:26:53;;;;;;;28.87;17.63;;;13.20;99.90;;;;;;5008277;28;20606;-49
2021/10/14 09:29:22;;;;;;;26.50;17.80;;;13.10;99.90;;;;;;5005503;28;20630;-49
2021/10/14 09:31:54;;;;;;;26.00;17.70;;;13.10;99.90;;;;;;5003096;28;20199;-50
2021/10/14 09:34:42;;;;;;;23.67;16.70;;;13.20;99.90;;;;;;5004289;28;20271;-50
2021/10/14 09:37:15;;;;;;;23.03;16.20;;;13.20;99.90;;;;;;5002985;28;20295;-49
2021/10/14 09:39:59;;;;;;;24.53;16.87;;;13.30;99.90;;;;;;5004463;28;20620;-50
2021/10/14 09:43:07;;;;;;;23.17;15.90;;;13.40;99.90;;;;;;5005307;28;20295;-49
2021/10/14 09:45:34;;;;;;;25.53;16.27;;;13.30;99.90;;;;;;5004694;28;20374;-49
2021/10/14 09:48:03;;;;;;;21.50;15.63;;;13.40;99.90;;;;;;5006063;28;20200;-50
2021/10/14 09:50:37;;;;;;;24.10;15.13;;;13.40;99.90;;;;;;5006937;28;20233;-49
2021/10/14 09:53:14;;;;;;;19.53;15.03;;;13.40;99.90;;;;;;5005550;28;20594;-49
2021/10/14 09:55:42;;;;;;;22.73;14.43;;;13.50;99.90;;;;;;5001337;28;20627;-50
2021/10/14 09:58:11;;;;;;;21.33;14.37;;;13.50;99.90;;;;;;5005487;28;20215;-50
2021/10/14 10:00:40;;;;;;;22.13;15.10;;;13.50;99.90;;;;;;5003979;28;20203;-49
2021/10/14 10:03:09;;;;;;;21.10;14.97;;;13.50;99.90;;;;;;5001165;28;20212;-49
2021/10/14 10:05:38;;;;;;;21.37;14.37;;;13.60;99.90;;;;;;5002310;28;20690;-49
2021/10/14 10:08:08;;;;;;;18.53;13.57;;;13.60;99.90;;;;;;5002743;28;20221;-49
2021/10/14 10:10:41;;;;;;;19.50;14.60;;;13.60;99.90;;;;;;5001851;28;20309;-49
2021/10/14 10:13:11;;;;;;;19.67;13.80;;;13.70;99.90;;;;;;5002023;28;21727;-49
2021/10/14 10:16:17;;;;;;;19.53;14.17;;;13.70;99.90;;;;;;5002385;28;20207;-49
2021/10/14 10:18:48;;;;;;;21.47;14.40;;;13.70;99.90;;;;;;5001120;28;20219;-53
2021/10/14 10:21:33;;;;;;;21.70;14.17;;;13.80;99.90;;;;;;4998109;28;20201;-49
2021/10/14 10:24:06;;;;;;;19.13;13.70;;;13.70;99.90;;;;;;5001492;28;20589;-49
2021/10/14 10:26:35;;;;;;;19.87;13.40;;;13.90;99.90;;;;;;4995874;28;20316;-50
2021/10/14 10:29:11;;;;;;;19.77;14.27;;;13.90;99.90;;;;;;5001649;28;21023;-50
2021/10/14 10:32:04;;;;;;;20.20;14.53;;;13.90;99.90;;;;;;4997231;28;20319;-50
2021/10/14 10:34:40;;;;;;;20.07;13.87;;;14.00;99.90;;;;;;4990941;28;20521;-50
2021/10/14 10:37:13;;;;;;;20.87;15.13;;;14.20;99.90;;;;;;4998291;28;20262;-49
2021/10/14 10:39:54;;;;;;;22.27;15.53;;;14.20;99.90;;;;;;5001067;28;20319;-50
2021/10/14 10:42:24;;;;;;;33.47;15.43;;;14.30;99.90;;;;;;5002875;28;20527;-50
2021/10/14 10:44:51;;;;;;;19.93;14.43;;;14.30;99.90;;;;;;5001212;28;20623;-50
2021/10/14 10:47:42;;;;;;;24.07;14.67;;;14.20;99.90;;;;;;5001119;28;20202;-50
2021/10/14 10:50:11;;;;;;;23.17;15.87;;;14.30;99.90;;;;;;4998938;28;20258;-51
2021/10/14 10:52:43;;;;;;;22.33;15.27;;;14.30;99.90;;;;;;5001594;28;21019;-51
2021/10/14 10:55:22;;;;;;;22.17;16.17;;;14.30;99.90;;;;;;5001658;28;20665;-49
2021/10/14 10:57:51;;;;;;;20.90;15.13;;;14.50;99.90;;;;;;5003124;28;20201;-50
2021/10/14 11:00:20;;;;;;;26.33;16.57;;;14.50;99.90;;;;;;5001533;28;20742;-51
2021/10/14 11:03:16;;;;;;;20.67;16.73;;;14.50;99.90;;;;;;4999473;28;20237;-51
2021/10/14 11:05:48;;;;;;;24.90;16.23;;;14.50;99.90;;;;;;5002120;28;20310;-51
2021/10/14 11:08:19;;;;;;;24.63;17.43;;;14.70;99.90;;;;;;5002036;28;20595;-50
2021/10/14 11:10:52;;;;;;;23.90;17.90;;;14.70;99.90;;;;;;4998366;28;20569;-51
2021/10/14 11:13:20;;;;;;;29.57;18.37;;;14.70;99.90;;;;;;5002478;28;20203;-51
2021/10/14 11:15:57;;;;;;;22.77;17.00;;;14.80;99.90;;;;;;5004442;28;20204;-50
2021/10/14 11:18:27;;;;;;;21.60;16.53;;;14.90;99.90;;;;;;5001918;28;20207;-51
2021/10/14 11:21:05;;;;;;;27.03;16.93;;;14.80;99.90;;;;;;5002058;28;20286;-49
2021/10/14 11:23:37;;;;;;;22.83;17.97;;;14.80;99.90;;;;;;4997202;28;20242;-48
2021/10/14 11:26:13;;;;;;;20.37;17.30;;;14.90;99.90;;;;;;4999738;28;20707;-48
2021/10/14 11:29:02;;;;;;;26.73;17.83;;;14.80;99.90;;;;;;4998538;28;20196;-51
2021/10/14 11:31:35;;;;;;;24.97;17.00;;;14.90;99.90;;;;;;4998808;28;20228;-48
2021/10/14 11:34:07;;;;;;;26.80;17.00;;;14.80;99.90;;;;;;4999584;28;20720;-51
2021/10/14 11:36:35;;;;;;;23.07;16.90;;;14.90;99.90;;;;;;5001211;28;20648;-51
2021/10/14 11:39:08;;;;;;;24.70;17.20;;;14.90;99.90;;;;;;5002919;28;20231;-49
2021/10/14 11:41:36;;;;;;;23.57;16.17;;;15.10;99.90;;;;;;4997633;28;20256;-51
2021/10/14 11:44:05;;;;;;;22.83;15.33;;;15.40;99.90;;;;;;5004922;28;20288;-48
2021/10/14 11:46:35;;;;;;;19.73;16.20;;;15.50;99.90;;;;;;5008343;28;20220;-49
2021/10/14 11:49:07;;;;;;;23.17;15.17;;;15.40;99.90;;;;;;5002433;28;20593;-49
2021/10/14 11:51:34;;;;;;;21.27;15.33;;;15.40;99.90;;;;;;4998373;28;20599;-51
2021/10/14 11:54:07;;;;;;;20.47;16.07;;;15.40;99.90;;;;;;5011505;28;20642;-48
2021/10/14 11:56:49;;;;;;;19.33;14.80;;;15.40;99.90;;;;;;4998972;28;20579;-48
2021/10/14 11:59:17;;;;;;;19.27;15.13;;;15.50;99.90;;;;;;5012201;28;20258;-49
2021/10/14 12:02:05;;;;;;;17.67;14.77;;;15.60;99.90;;;;;;5008990;28;20209;-49
2021/10/14 12:04:50;;;;;;;20.13;14.87;;;15.70;99.90;;;;;;5001237;28;20248;-50
2021/10/14 12:07:29;;;;;;;19.97;14.43;;;15.70;99.90;;;;;;5011482;28;20664;-51
2021/10/14 12:09:56;;;;;;;17.83;14.43;;;15.70;99.90;;;;;;5010818;28;20633;-49
2021/10/14 12:12:26;;;;;;;15.93;13.80;;;16.00;99.90;;;;;;5011190;28;20208;-48
2021/10/14 12:15:13;;;;;;;19.97;14.97;;;15.90;99.90;;;;;;5006516;28;20235;-48
2021/10/14 12:17:46;;;;;;;18.47;13.63;;;15.90;99.90;;;;;;5012103;28;20233;-50
2021/10/14 12:20:13;;;;;;;16.27;13.87;;;16.30;99.90;;;;;;5008048;28;20654;-48
2021/10/14 12:22:43;;;;;;;17.30;13.97;;;16.40;99.90;;;;;;5011211;28;20209;-51
2021/10/14 12:25:10;;;;;;;17.23;13.73;;;16.30;99.90;;;;;;5015483;28;20232;-49
2021/10/14 12:27:48;;;;;;;17.50;12.33;;;16.20;99.90;;;;;;5010692;28;20253;-50
2021/10/14 12:30:25;;;;;;;17.50;12.47;;;16.50;99.90;;;;;;5010898;28;20234;-49
2021/10/14 12:32:55;;;;;;;14.27;11.57;;;16.80;99.90;;;;;;5010077;28;20289;-52
2021/10/14 12:35:24;;;;;;;16.93;12.17;;;17.20;99.90;;;;;;5010791;28;20808;-51
2021/10/14 12:38:03;;;;;;;16.53;11.13;;;17.20;99.90;;;;;;5019887;28;20234;-51